^^
Saratoga-Weather Station Historical Data
Daily Summary for June 4, 2020 Units:  English    Metric   Both
Daily Weekly Monthly Yearly Custom
  High: Low: Average:
Temperature: 49.6 °F 35.2 °F 41.4 °F
Dew Point: 43.2 °F 34 °F 38.3 °F
Humidity: 96% 74% 89%
Wind Speed: 6mph 0mph 0.7mph
Wind Gust: 8mph - -
Wind- - SW
Pressure: 30.6 in 30.3 in -
Precipitation: 0 in    
Historical Graphs
 
 
Tabular Data for June 4, 2020
Time Temperature Dew Point Pressure Wind Wind Speed Wind Gust Humidity Rainfall Rate (Hourly) solar
00:01 43.5 °F 39.4 °F 30.3 in WSW 4 mph 8 mph 85% 0 in 0 W/m2
00:06 43.3 °F 39.2 °F 30.3 in West 6 mph 6 mph 85% 0 in 0 W/m2
00:11 43.3 °F 39.2 °F 30.3 in NW 4 mph 4 mph 85% 0 in 0 W/m2
00:16 43.3 °F 39.2 °F 30.3 in West 0.9 mph 3 mph 85% 0 in 0 W/m2
00:21 43.2 °F 39 °F 30.3 in West 2.9 mph 4 mph 85% 0 in 0 W/m2
00:26 43.3 °F 39.2 °F 30.3 in WSW 0.9 mph 6 mph 85% 0 in 0 W/m2
00:31 43.2 °F 39 °F 30.3 in Calm   2 mph 85% 0 in 0 W/m2
00:36 43 °F 38.8 °F 30.3 in West 2.9 mph 6 mph 85% 0 in 0 W/m2
00:41 42.8 °F 38.7 °F 30.3 in West 4 mph 4 mph 85% 0 in 0 W/m2
00:46 42.6 °F 38.7 °F 30.3 in West 0.9 mph 6 mph 86% 0 in 0 W/m2
00:51 42.6 °F 38.5 °F 30.3 in SW 2 mph 3 mph 85% 0 in 0 W/m2
00:56 42.6 °F 38.7 °F 30.3 in Calm   2 mph 86% 0 in 0 W/m2
01:01 42.4 °F 38.5 °F 30.4 in Calm   1 mph 86% 0 in 0 W/m2
01:06 42.1 °F 38.1 °F 30.4 in Calm     86% 0 in 0 W/m2
01:11 41.7 °F 38.1 °F 30.4 in Calm   1 mph 87% 0 in 0 W/m2
01:16 41.4 °F 37.8 °F 30.4 in Calm   2 mph 87% 0 in 0 W/m2
01:21 41.4 °F 38.1 °F 30.4 in West 2.9 mph 5 mph 88% 0 in 0 W/m2
01:26 41.4 °F 38.1 °F 30.4 in Calm   1 mph 88% 0 in 0 W/m2
01:31 41.4 °F 38.1 °F 30.4 in Calm   4 mph 88% 0 in 0 W/m2
01:36 41.2 °F 37.9 °F 30.4 in Calm     88% 0 in 0 W/m2
01:41 41 °F 37.8 °F 30.4 in Calm     88% 0 in 0 W/m2
01:46 40.6 °F 37.4 °F 30.4 in Calm     88% 0 in 0 W/m2
01:51 40.3 °F 37.2 °F 30.4 in Calm     89% 0 in 0 W/m2
01:56 39.7 °F 37 °F 30.4 in Calm     90% 0 in 0 W/m2
02:01 39.6 °F 36.9 °F 30.4 in Calm     90% 0 in 0 W/m2
02:06 39.4 °F 37 °F 30.4 in Calm     91% 0 in 0 W/m2
02:11 39 °F 36.7 °F 30.4 in Calm     91% 0 in 0 W/m2
02:17 38.8 °F 36.5 °F 30.4 in Calm     91% 0 in 0 W/m2
02:22 38.8 °F 36.7 °F 30.4 in Calm     92% 0 in 0 W/m2
02:27 38.7 °F 36.5 °F 30.4 in Calm     92% 0 in 0 W/m2
02:32 38.5 °F 36.3 °F 30.4 in Calm   2 mph 92% 0 in 0 W/m2
02:37 38.5 °F 36.3 °F 30.4 in Calm     92% 0 in 0 W/m2
02:42 38.5 °F 36.3 °F 30.4 in Calm   2 mph 92% 0 in 0 W/m2
02:47 38.5 °F 36.7 °F 30.4 in Calm   3 mph 93% 0 in 0 W/m2
02:52 38.5 °F 36.7 °F 30.4 in Calm   1 mph 93% 0 in 0 W/m2
02:57 38.5 °F 36.7 °F 30.4 in Calm     93% 0 in 0 W/m2
03:02 38.5 °F 36.7 °F 30.4 in Calm     93% 0 in 0 W/m2
03:07 38.5 °F 36.7 °F 30.4 in West 0.9 mph 1 mph 93% 0 in 0 W/m2
03:12 38.7 °F 37 °F 30.4 in West 0.9 mph 1 mph 94% 0 in 0 W/m2
03:17 38.8 °F 37 °F 30.4 in Calm   2 mph 93% 0 in 0 W/m2
03:22 38.7 °F 36.9 °F 30.4 in East 2 mph 3 mph 93% 0 in 0 W/m2
03:27 38.7 °F 36.9 °F 30.4 in ESE 0.9 mph 2 mph 93% 0 in 0 W/m2
03:32 38.5 °F 36.7 °F 30.4 in ESE 0.9 mph 2 mph 93% 0 in 0 W/m2
03:37 38.1 °F 36.3 °F 30.4 in Calm   2 mph 93% 0 in 0 W/m2
03:42 37.9 °F 36.1 °F 30.4 in ESE 0.9 mph 2 mph 93% 0 in 0 W/m2
03:47 37.9 °F 36.1 °F 30.4 in Calm   2 mph 93% 0 in 0 W/m2
03:52 37.8 °F 36 °F 30.4 in Calm   1 mph 93% 0 in 0 W/m2
03:57 37.6 °F 35.8 °F 30.4 in Calm     93% 0 in 0 W/m2
04:02 37.4 °F 35.6 °F 30.4 in Calm     93% 0 in 0 W/m2
04:07 37.4 °F 35.6 °F 30.4 in ESE 0.9 mph 1 mph 93% 0 in 0 W/m2
04:12 37.2 °F 35.4 °F 30.4 in Calm   1 mph 93% 0 in 0 W/m2
04:17 37.2 °F 35.4 °F 30.4 in Calm   1 mph 93% 0 in 0 W/m2
04:22 37 °F 35.4 °F 30.4 in ESE 0.9 mph 1 mph 94% 0 in 0 W/m2
04:27 37 °F 35.4 °F 30.4 in Calm   1 mph 94% 0 in 0 W/m2
04:32 37 °F 35.4 °F 30.4 in Calm     94% 0 in 0 W/m2
04:37 37 °F 35.4 °F 30.4 in Calm     94% 0 in 0 W/m2
04:42 36.9 °F 35.2 °F 30.4 in Calm     94% 0 in 0 W/m2
04:47 36.9 °F 35.2 °F 30.4 in Calm     94% 0 in 0 W/m2
04:52 36.7 °F 35.1 °F 30.4 in Calm     94% 0 in 0 W/m2
04:57 36.9 °F 35.2 °F 30.4 in Calm     94% 0 in 0 W/m2
05:02 36.9 °F 35.2 °F 30.4 in Calm     94% 0 in 0 W/m2
05:07 37 °F 35.4 °F 30.4 in Calm     94% 0 in 0 W/m2
05:12 37 °F 35.4 °F 30.4 in Calm     94% 0 in 0 W/m2
05:17 37 °F 35.4 °F 30.4 in ESE 0.9 mph 1 mph 94% 0 in 0 W/m2
05:22 37 °F 35.8 °F 30.4 in Calm     95% 0 in 0 W/m2
05:27 36.9 °F 35.2 °F 30.4 in Calm     94% 0 in 0 W/m2
05:32 36.9 °F 35.6 °F 30.4 in Calm     95% 0 in 0 W/m2
05:37 36.7 °F 35.1 °F 30.4 in Calm     94% 0 in 0 W/m2
05:42 36.3 °F 34.7 °F 30.4 in Calm     94% 0 in 0 W/m2
05:47 36.3 °F 34.7 °F 30.4 in Calm     94% 0 in 0 W/m2
05:52 36.1 °F 34.5 °F 30.4 in Calm     94% 0 in 0 W/m2
05:57 36 °F 34.7 °F 30.4 in Calm     95% 0 in 0 W/m2
06:02 36 °F 34.7 °F 30.4 in Calm     95% 0 in 0 W/m2
06:07 36 °F 34.3 °F 30.4 in Calm     94% 0 in 0 W/m2
06:12 35.8 °F 34.5 °F 30.4 in Calm     95% 0 in 0 W/m2
06:17 35.8 °F 34.5 °F 30.4 in Calm     95% 0 in 0 W/m2
06:22 35.8 °F 34.5 °F 30.4 in Calm     95% 0 in 0 W/m2
06:27 35.8 °F 34.5 °F 30.4 in Calm     95% 0 in 0 W/m2
06:32 35.6 °F 34.3 °F 30.4 in Calm     95% 0 in 0 W/m2
06:37 35.4 °F 34.2 °F 30.4 in Calm     95% 0 in 0 W/m2
06:42 35.4 °F 34.2 °F 30.4 in Calm     95% 0 in 0 W/m2
06:47 35.4 °F 34.2 °F 30.4 in Calm     95% 0 in 0 W/m2
06:52 35.4 °F 34.2 °F 30.4 in Calm   2 mph 95% 0 in 0 W/m2
06:57 35.4 °F 34.2 °F 30.4 in Calm     95% 0 in 0 W/m2
07:02 35.4 °F 34.2 °F 30.4 in SW 0.9 mph 3 mph 95% 0 in 0 W/m2
07:07 35.4 °F 34.2 °F 30.4 in Calm     95% 0 in 0 W/m2
07:12 35.2 °F 34 °F 30.4 in Calm     95% 0 in 0 W/m2
07:17 35.2 °F 34 °F 30.4 in Calm     95% 0 in 0 W/m2
07:22 35.2 °F 34 °F 30.4 in Calm     95% 0 in 0 W/m2
07:27 35.4 °F 34.2 °F 30.4 in Calm     95% 0 in 0 W/m2
07:32 35.4 °F 34.2 °F 30.4 in Calm   1 mph 95% 0 in 0 W/m2
07:38 35.4 °F 34.2 °F 30.4 in Calm     95% 0 in 5 W/m2
07:43 35.2 °F 34 °F 30.4 in SE 2 mph 2 mph 95% 0 in 7 W/m2
07:48 35.4 °F 34.2 °F 30.4 in Calm     95% 0 in 9 W/m2
07:53 35.4 °F 34.2 °F 30.4 in Calm     95% 0 in 11 W/m2
07:58 35.6 °F 34.3 °F 30.4 in Calm     95% 0 in 12 W/m2
08:03 35.6 °F 34.3 °F 30.4 in Calm     95% 0 in 14 W/m2
08:08 35.4 °F 34.2 °F 30.4 in Calm     95% 0 in 18 W/m2
08:13 35.4 °F 34.2 °F 30.4 in Calm     95% 0 in 19 W/m2
08:18 35.4 °F 34.2 °F 30.4 in Calm     95% 0 in 19 W/m2
08:23 35.4 °F 34.2 °F 30.4 in Calm     95% 0 in 23 W/m2
08:28 35.6 °F 34.5 °F 30.4 in Calm     96% 0 in 42 W/m2
08:33 35.8 °F 34.7 °F 30.4 in Calm     96% 0 in 47 W/m2
08:38 36 °F 34.9 °F 30.4 in SE 0.9 mph 1 mph 96% 0 in 63 W/m2
08:43 36.3 °F 35.2 °F 30.4 in Calm     96% 0 in 65 W/m2
08:48 36.7 °F 35.6 °F 30.4 in Calm     96% 0 in 54 W/m2
08:53 36.9 °F 35.8 °F 30.4 in WSW 0.9 mph 1 mph 96% 0 in 67 W/m2
08:58 37 °F 36 °F 30.4 in Calm     96% 0 in 56 W/m2
09:03 37.2 °F 36.1 °F 30.4 in Calm     96% 0 in 56 W/m2
09:08 37.4 °F 36.3 °F 30.4 in Calm     96% 0 in 65 W/m2
09:13 37.6 °F 36.5 °F 30.4 in Calm   1 mph 96% 0 in 65 W/m2
09:18 37.8 °F 36.7 °F 30.4 in WSW 0.9 mph 1 mph 96% 0 in 79 W/m2
09:23 37.9 °F 36.9 °F 30.4 in WSW 0.9 mph 2 mph 96% 0 in 88 W/m2
09:28 38.1 °F 37 °F 30.5 in WSW 0.9 mph 1 mph 96% 0 in 70 W/m2
09:33 38.3 °F 37.2 °F 30.5 in Calm   1 mph 96% 0 in 79 W/m2
09:38 38.5 °F 37.4 °F 30.5 in Calm   1 mph 96% 0 in 76 W/m2
09:43 38.8 °F 37.8 °F 30.5 in WSW 0.9 mph 1 mph 96% 0 in 76 W/m2
09:48 39 °F 37.9 °F 30.5 in North 0.9 mph 2 mph 96% 0 in 74 W/m2
09:54 39.4 °F 38.3 °F 30.5 in North 0.9 mph 2 mph 96% 0 in 76 W/m2
09:59 39.6 °F 38.5 °F 30.5 in ENE 0.9 mph 1 mph 96% 0 in 83 W/m2
10:04 39.6 °F 38.5 °F 30.5 in Calm   2 mph 96% 0 in 77 W/m2
10:09 39.7 °F 38.7 °F 30.5 in ESE 2.9 mph 3 mph 96% 0 in 72 W/m2
10:14 39.9 °F 38.8 °F 30.5 in NNW 4.9 mph 5 mph 96% 0 in 79 W/m2
10:19 39.9 °F 38.7 °F 30.5 in NNW 0.9 mph 1 mph 95% 0 in 95 W/m2
10:24 40.3 °F 39.2 °F 30.5 in Calm   1 mph 96% 0 in 107 W/m2
10:29 40.3 °F 39 °F 30.5 in WNW 0.9 mph 6 mph 95% 0 in 105 W/m2
10:34 40.5 °F 39.2 °F 30.5 in Calm   3 mph 95% 0 in 118 W/m2
10:39 40.5 °F 39.2 °F 30.5 in WNW 2 mph 6 mph 95% 0 in 130 W/m2
10:44 40.5 °F 39.2 °F 30.5 in North 2.9 mph 4 mph 95% 0 in 181 W/m2
10:49 40.6 °F 39.4 °F 30.5 in NW 0.9 mph 4 mph 95% 0 in 134 W/m2
10:54 40.6 °F 39 °F 30.5 in NW 0.9 mph 4 mph 94% 0 in 105 W/m2
10:59 40.6 °F 39 °F 30.5 in Calm   1 mph 94% 0 in 190 W/m2
11:04 40.8 °F 39.2 °F 30.5 in NW 2 mph 4 mph 94% 0 in 195 W/m2
11:09 41.2 °F 39.6 °F 30.5 in WNW 0.9 mph 6 mph 94% 0 in 174 W/m2
11:14 41.4 °F 39.7 °F 30.5 in WNW 2 mph 3 mph 94% 0 in 190 W/m2
11:19 41.5 °F 39.9 °F 30.5 in Calm   1 mph 94% 0 in 176 W/m2
11:24 41.9 °F 40.1 °F 30.5 in North 2 mph 2 mph 93% 0 in 104 W/m2
11:29 42.1 °F 40.3 °F 30.5 in North 2 mph 2 mph 93% 0 in 109 W/m2
11:34 42.3 °F 40.5 °F 30.5 in NW 2 mph 6 mph 93% 0 in 58 W/m2
11:39 42.4 °F 40.3 °F 30.5 in Calm   1 mph 92% 0 in 67 W/m2
11:44 42.6 °F 40.5 °F 30.5 in NE 0.9 mph 5 mph 92% 0 in 91 W/m2
11:49 43 °F 40.8 °F 30.5 in ENE 0.9 mph 4 mph 92% 0 in 118 W/m2
11:54 43.3 °F 40.8 °F 30.5 in North 0.9 mph 5 mph 91% 0 in 253 W/m2
11:59 43.9 °F 41.2 °F 30.5 in NE 2 mph 3 mph 90% 0 in 239 W/m2
12:04 44.2 °F 41.5 °F 30.5 in NNW 0.9 mph 3 mph 90% 0 in 93 W/m2
12:09 44.4 °F 41.2 °F 30.5 in Calm   3 mph 88% 0 in 56 W/m2
12:14 44.6 °F 41.2 °F 30.5 in East 2 mph 3 mph 88% 0 in 58 W/m2
12:19 44.8 °F 41.4 °F 30.5 in Calm   2 mph 88% 0 in 47 W/m2
12:24 44.8 °F 41.2 °F 30.5 in Calm   2 mph 87% 0 in 44 W/m2
12:29 44.8 °F 41.2 °F 30.5 in Calm   1 mph 87% 0 in 56 W/m2
12:34 45 °F 41.4 °F 30.5 in ENE 0.9 mph 3 mph 87% 0 in 62 W/m2
12:39 45.3 °F 41.7 °F 30.5 in ENE 2 mph 5 mph 87% 0 in 74 W/m2
12:44 45.7 °F 41.7 °F 30.5 in NE 0.9 mph 3 mph 86% 0 in 44 W/m2
12:49 45.9 °F 41.5 °F 30.5 in WNW 4 mph 5 mph 85% 0 in 70 W/m2
12:54 46.2 °F 41.9 °F 30.5 in ENE 2 mph 3 mph 85% 0 in 53 W/m2
12:59 46.4 °F 42.1 °F 30.5 in NW 0.9 mph 2 mph 85% 0 in 51 W/m2
13:04 46.8 °F 42.3 °F 30.5 in NE 0.9 mph 4 mph 84% 0 in 65 W/m2
13:09 46.9 °F 42.1 °F 30.5 in West 4 mph 5 mph 83% 0 in 51 W/m2
13:14 46.9 °F 41.7 °F 30.5 in West 2 mph 3 mph 82% 0 in 46 W/m2
13:19 47.1 °F 42.3 °F 30.5 in Calm   1 mph 83% 0 in 62 W/m2
13:24 47.3 °F 42.4 °F 30.5 in North 4 mph 4 mph 83% 0 in 58 W/m2
13:29 47.7 °F 42.1 °F 30.5 in West 2 mph 6 mph 81% 0 in 95 W/m2
13:34 47.8 °F 42.3 °F 30.5 in Calm   4 mph 81% 0 in 62 W/m2
13:39 48 °F 42.4 °F 30.5 in North 2 mph 2 mph 81% 0 in 74 W/m2
13:44 48.2 °F 42.3 °F 30.5 in NW 2 mph 4 mph 80% 0 in 69 W/m2
13:49 48.4 °F 42.8 °F 30.5 in NW 2 mph 5 mph 81% 0 in 81 W/m2
13:55 48.4 °F 42.4 °F 30.5 in WNW 0.9 mph 6 mph 80% 0 in 53 W/m2
14:00 48.6 °F 42.6 °F 30.5 in NW 2 mph 2 mph 80% 0 in 62 W/m2
14:05 48.6 °F 42.6 °F 30.5 in Calm   5 mph 80% 0 in 83 W/m2
14:10 48.6 °F 42.3 °F 30.5 in NW 0.9 mph 6 mph 79% 0 in 90 W/m2
14:15 48.6 °F 42.3 °F 30.5 in ESE 2 mph 4 mph 79% 0 in 63 W/m2
14:20 48.7 °F 42.4 °F 30.5 in WNW 2 mph 7 mph 79% 0 in 56 W/m2
14:25 48.9 °F 42.6 °F 30.5 in West 2 mph 4 mph 79% 0 in 56 W/m2
14:30 48.9 °F 42.6 °F 30.5 in West 2.9 mph 8 mph 79% 0 in 72 W/m2
14:35 49.1 °F 42.6 °F 30.5 in NW 0.9 mph 2 mph 78% 0 in 81 W/m2
14:40 49.3 °F 42.8 °F 30.5 in NNW 4 mph 6 mph 78% 0 in 72 W/m2
14:45 49.3 °F 42.8 °F 30.5 in West 2 mph 7 mph 78% 0 in 86 W/m2
14:50 49.5 °F 43.2 °F 30.5 in NE 0.9 mph 3 mph 79% 0 in 95 W/m2
14:55 49.5 °F 42.8 °F 30.5 in NE 2 mph 4 mph 78% 0 in 83 W/m2
15:00 49.5 °F 42.6 °F 30.5 in Calm   2 mph 77% 0 in 67 W/m2
15:05 49.6 °F 42.8 °F 30.5 in Calm   2 mph 77% 0 in 51 W/m2
15:10 49.6 °F 42.8 °F 30.5 in NNW 2 mph 5 mph 77% 0 in 40 W/m2
15:15 49.6 °F 42.4 °F 30.5 in NNW 4.9 mph 6 mph 76% 0 in 32 W/m2
15:20 49.6 °F 42.4 °F 30.5 in NNE 2 mph 4 mph 76% 0 in 33 W/m2
15:25 49.5 °F 41.9 °F 30.5 in WNW 2 mph 6 mph 75% 0 in 35 W/m2
15:30 49.5 °F 41.5 °F 30.5 in NNW 0.9 mph 4 mph 74% 0 in 32 W/m2
15:35 49.5 °F 41.5 °F 30.5 in NE 4.9 mph 5 mph 74% 0 in 28 W/m2
15:40 49.5 °F 41.5 °F 30.5 in Calm   4 mph 74% 0 in 26 W/m2
15:45 49.5 °F 41.5 °F 30.5 in NE 2.9 mph 5 mph 74% 0 in 26 W/m2
15:50 49.5 °F 41.5 °F 30.5 in WNW 2 mph 4 mph 74% 0 in 25 W/m2
15:55 49.5 °F 41.5 °F 30.5 in NW 2.9 mph 7 mph 74% 0 in 23 W/m2
16:00 49.5 °F 41.5 °F 30.5 in ENE 0.9 mph 3 mph 74% 0 in 23 W/m2
16:05 49.3 °F 41.4 °F 30.5 in North 0.9 mph 7 mph 74% 0 in 23 W/m2
16:10 49.3 °F 41.4 °F 30.5 in NNE 2.9 mph 4 mph 74% 0 in 23 W/m2
16:15 49.1 °F 41.5 °F 30.5 in ENE 2.9 mph 6 mph 75% 0 in 21 W/m2
16:20 48.9 °F 41.4 °F 30.5 in NE 0.9 mph 2 mph 75% 0 in 19 W/m2
16:25 48.9 °F 41.4 °F 30.5 in Calm   6 mph 75% 0 in 18 W/m2
16:30 48.7 °F 41.5 °F 30.5 in NNW 0.9 mph 2 mph 76% 0 in 16 W/m2
16:35 48.6 °F 41.4 °F 30.5 in Calm   1 mph 76% 0 in 14 W/m2
16:40 48.4 °F 41.5 °F 30.5 in Calm   2 mph 77% 0 in 14 W/m2
16:45 48.2 °F 41.4 °F 30.5 in Calm   1 mph 77% 0 in 12 W/m2
16:50 48.2 °F 41.4 °F 30.5 in Calm   1 mph 77% 0 in 12 W/m2
16:55 48 °F 41.5 °F 30.5 in Calm     78% 0 in 11 W/m2
17:00 47.8 °F 41.4 °F 30.5 in Calm   1 mph 78% 0 in 7 W/m2
17:05 47.7 °F 41.5 °F 30.5 in NW 0.9 mph 1 mph 79% 0 in 5 W/m2
17:10 47.1 °F 41.4 °F 30.5 in Calm   1 mph 80% 0 in 0 W/m2
17:15 46.8 °F 41.2 °F 30.5 in Calm     81% 0 in 0 W/m2
17:20 46.2 °F 40.6 °F 30.5 in Calm     81% 0 in 0 W/m2
17:25 46 °F 40.8 °F 30.5 in Calm   1 mph 82% 0 in 0 W/m2
17:31 45.7 °F 40.5 °F 30.5 in Calm     82% 0 in 0 W/m2
17:36 45.3 °F 40.5 °F 30.5 in Calm   1 mph 83% 0 in 0 W/m2
17:41 45 °F 40.5 °F 30.5 in Calm   1 mph 84% 0 in 0 W/m2
17:46 44.8 °F 40.3 °F 30.5 in Calm   2 mph 84% 0 in 0 W/m2
17:51 44.4 °F 40.3 °F 30.5 in Calm   2 mph 85% 0 in 0 W/m2
17:56 44.4 °F 40.3 °F 30.5 in Calm   1 mph 85% 0 in 0 W/m2
18:01 44.2 °F 40.1 °F 30.5 in Calm   2 mph 85% 0 in 0 W/m2
18:06 44.1 °F 40.1 °F 30.5 in WSW 2 mph 2 mph 86% 0 in 0 W/m2
18:11 44.1 °F 40.1 °F 30.5 in Calm     86% 0 in 0 W/m2
18:16 43.9 °F 39.9 °F 30.5 in WSW 0.9 mph 1 mph 86% 0 in 0 W/m2
18:21 43.7 °F 39.7 °F 30.5 in Calm   1 mph 86% 0 in 0 W/m2
18:26 43.5 °F 39.6 °F 30.5 in Calm     86% 0 in 0 W/m2
18:31 43.3 °F 39.7 °F 30.5 in WSW 0.9 mph 1 mph 87% 0 in 0 W/m2
18:36 43.3 °F 39.7 °F 30.5 in Calm     87% 0 in 0 W/m2
18:41 43.2 °F 39.6 °F 30.5 in Calm     87% 0 in 0 W/m2
18:46 43 °F 39.4 °F 30.5 in Calm     87% 0 in 0 W/m2
18:51 42.8 °F 39.2 °F 30.5 in Calm     87% 0 in 0 W/m2
18:56 42.6 °F 39.4 °F 30.5 in Calm   1 mph 88% 0 in 0 W/m2
19:01 42.4 °F 39.2 °F 30.5 in WSW 0.9 mph 2 mph 88% 0 in 0 W/m2
19:06 42.3 °F 39 °F 30.5 in Calm   2 mph 88% 0 in 0 W/m2
19:11 42.3 °F 39 °F 30.5 in Calm   1 mph 88% 0 in 0 W/m2
19:16 42.1 °F 39 °F 30.5 in Calm   1 mph 89% 0 in 0 W/m2
19:21 42.1 °F 39 °F 30.5 in WSW 0.9 mph 2 mph 89% 0 in 0 W/m2
19:26 41.9 °F 38.8 °F 30.5 in WSW 0.9 mph 1 mph 89% 0 in 0 W/m2
19:31 41.7 °F 38.7 °F 30.5 in Calm   2 mph 89% 0 in 0 W/m2
19:36 41.5 °F 38.5 °F 30.5 in Calm   1 mph 89% 0 in 0 W/m2
19:41 41.5 °F 38.8 °F 30.5 in WSW 2 mph 2 mph 90% 0 in 0 W/m2
19:46 41.4 °F 38.7 °F 30.5 in Calm   2 mph 90% 0 in 0 W/m2
19:51 41.2 °F 38.5 °F 30.5 in Calm   1 mph 90% 0 in 0 W/m2
19:56 41 °F 38.3 °F 30.5 in Calm   2 mph 90% 0 in 0 W/m2
20:01 41 °F 38.7 °F 30.5 in Calm   2 mph 91% 0 in 0 W/m2
20:06 40.8 °F 38.5 °F 30.5 in Calm     91% 0 in 0 W/m2
20:11 40.8 °F 38.5 °F 30.5 in Calm   2 mph 91% 0 in 0 W/m2
20:16 40.6 °F 38.3 °F 30.6 in Calm     91% 0 in 0 W/m2
20:21 40.6 °F 38.3 °F 30.6 in WSW 0.9 mph 1 mph 91% 0 in 0 W/m2
20:26 40.6 °F 38.3 °F 30.6 in Calm   1 mph 91% 0 in 0 W/m2
20:31 40.6 °F 38.3 °F 30.6 in WSW 2 mph 2 mph 91% 0 in 0 W/m2
20:36 40.6 °F 38.3 °F 30.6 in WSW 0.9 mph 1 mph 91% 0 in 0 W/m2
20:41 40.8 °F 38.5 °F 30.6 in Calm   2 mph 91% 0 in 0 W/m2
20:46 40.6 °F 38.3 °F 30.6 in Calm   1 mph 91% 0 in 0 W/m2
20:51 40.6 °F 38.3 °F 30.6 in WSW 0.9 mph 1 mph 91% 0 in 0 W/m2
20:56 40.6 °F 38.3 °F 30.6 in Calm   1 mph 91% 0 in 0 W/m2
21:01 40.6 °F 38.3 °F 30.6 in WSW 0.9 mph 1 mph 91% 0 in 0 W/m2
21:06 40.6 °F 38.3 °F 30.6 in Calm     91% 0 in 0 W/m2
21:11 40.6 °F 38.3 °F 30.6 in Calm     91% 0 in 0 W/m2
21:16 40.6 °F 38.3 °F 30.6 in Calm   2 mph 91% 0 in 0 W/m2
21:21 40.6 °F 38.3 °F 30.6 in Calm   2 mph 91% 0 in 0 W/m2
21:26 40.5 °F 38.1 °F 30.6 in Calm   2 mph 91% 0 in 0 W/m2
21:31 40.3 °F 37.9 °F 30.6 in Calm   1 mph 91% 0 in 0 W/m2
21:36 40.3 °F 37.9 °F 30.6 in WSW 0.9 mph 2 mph 91% 0 in 0 W/m2
21:41 40.3 °F 38.1 °F 30.6 in WSW 2 mph 2 mph 92% 0 in 0 W/m2
21:46 40.3 °F 38.1 °F 30.6 in WSW 0.9 mph 2 mph 92% 0 in 0 W/m2
21:51 40.5 °F 38.3 °F 30.6 in WSW 0.9 mph 1 mph 92% 0 in 0 W/m2
21:56 40.5 °F 38.3 °F 30.6 in NW 0.9 mph 1 mph 92% 0 in 0 W/m2
22:01 40.5 °F 38.1 °F 30.6 in Calm     91% 0 in 0 W/m2
22:06 40.5 °F 38.1 °F 30.6 in Calm   3 mph 91% 0 in 0 W/m2
22:11 40.6 °F 38.5 °F 30.6 in Calm   4 mph 92% 0 in 0 W/m2
22:16 40.8 °F 38.7 °F 30.6 in NNE 0.9 mph 3 mph 92% 0 in 0 W/m2
22:21 41.2 °F 38.8 °F 30.6 in WSW 0.9 mph 4 mph 91% 0 in 0 W/m2
22:26 41 °F 38.7 °F 30.6 in Calm   1 mph 91% 0 in 0 W/m2
22:31 40.8 °F 38.1 °F 30.6 in Calm   2 mph 90% 0 in 0 W/m2
22:36 40.5 °F 37.8 °F 30.6 in WSW 0.9 mph 2 mph 90% 0 in 0 W/m2
22:41 40.3 °F 37.9 °F 30.6 in WSW 0.9 mph 1 mph 91% 0 in 0 W/m2
22:46 39.9 °F 37.2 °F 30.6 in WSW 2 mph 2 mph 90% 0 in 0 W/m2
22:51 39.7 °F 37.4 °F 30.6 in Calm   2 mph 91% 0 in 0 W/m2
22:56 39.6 °F 37.2 °F 30.6 in Calm   1 mph 91% 0 in 0 W/m2
23:01 39.4 °F 37 °F 30.6 in Calm   2 mph 91% 0 in 0 W/m2
23:06 39.4 °F 37.2 °F 30.6 in Calm   1 mph 92% 0 in 0 W/m2
23:11 39.4 °F 37.2 °F 30.6 in WSW 2 mph 2 mph 92% 0 in 0 W/m2
23:16 39.2 °F 37 °F 30.6 in Calm     92% 0 in 0 W/m2
23:22 39.2 °F 37.4 °F 30.6 in WSW 0.9 mph 2 mph 93% 0 in 0 W/m2
23:27 39.4 °F 37.6 °F 30.6 in Calm     93% 0 in 0 W/m2
23:32 39.4 °F 37.6 °F 30.6 in Calm     93% 0 in 0 W/m2
23:37 39.2 °F 37.4 °F 30.6 in Calm     93% 0 in 0 W/m2
23:42 39 °F 37.2 °F 30.6 in Calm     93% 0 in 0 W/m2
23:47 39 °F 37.2 °F 30.6 in Calm     93% 0 in 0 W/m2
23:52 39 °F 37.2 °F 30.6 in Calm     93% 0 in 0 W/m2
23:57 39.2 °F 37.4 °F 30.6 in Calm   1 mph 93% 0 in 0 W/m2
Juneau County Weather
Compliments of Weather Underground - 4 mb